Salt Creek, Ohio
Current Conditions -  °F | °C
As of 7:56 PM on Tuesday 21 Oct 2014 (Local Time) from KBJJ Reporting Station
Light Rain Light Rain  
Wind Chill: 39°   Ceiling: 800
Heat Index: 46°   Visibility: 4mi
Dew Point: 42°   Wind: 16mph
Humidity: 86%   Direction: 330°NNW
Pressure: 30.06"   Gusts: 23mph
Location:  40.6236°N, 81.7849°W
Report Text: KBJJ 212356Z AUTO 33014G20KT 4SM -RA BR OVC008 08/06 A3006 RMK AO2 CIG 005V011 SLP183 P0001 60004 T00780056 10094 20078 51007 TSNO
Loading
Personal Weather Stations






























Interactive Weather Map
Tropical Storm Tracking
New forecast layout! Learn more

10-Day Weather Forecast

Advertisements
Track Severe Weather on mobile